»·PEaware :: N305EL KPDX-KRNO

N305EL :: KPDX-KRNO

FLIGHT INFORMATION

Flight Status: Arrived
Operator: Privately registered:
United States
More flights under this callsign
Pilot: Cullen C. (26241)
Aircraft: BEECH AIRCRAFT A90-E90 KING AIR
(BE9L)
More flights by this aircraft type
Origin: KPDX Portland Intl
United States
Destination: KRNO Reno/Tahoe Intl
United States
More flights between these airports :: More routes between these airports
Route: +PTLD1 DSD PAWLI BAARB FMG
File this flight plan on PilotEdge
Remarks:
Altitude:
(Current/Filed)
25,000ft
Speed:
(Current/Filed)
190kts
Departed: 10-Oct-20 02:27 PM
Arrived: 10-Oct-20 03:46 PM
Distance/Time
Traveled:
386nm/1:19
Distance/Time
To Go:
Arrived

Flight Plot

Page will automatically refresh every two minutes.

Flight plan parsing failed; only flown route is shown


Map Options




Map Legend


Flown Route
Filed Route
Departure Airport
Arrival Airport
Navaid (VOR, NDB)
Fix

Horizontal Profiles

Position Reports

Time Latitude Longitude Heading Altitude Ground
Speed
10-Oct-20 13:54 45.585110 -122.577938 36 19ft 0kts
10-Oct-20 13:55 45.585110 -122.577938 36 19ft 0kts
10-Oct-20 13:56 45.585110 -122.577938 36 19ft 0kts
10-Oct-20 13:57 45.585110 -122.577938 36 19ft 0kts
10-Oct-20 13:58 45.585110 -122.577938 36 19ft 0kts
10-Oct-20 13:59 45.585110 -122.577938 36 19ft 0kts
10-Oct-20 14:00 45.585110 -122.577938 36 19ft 0kts
10-Oct-20 14:01 45.585110 -122.577938 36 19ft 0kts
10-Oct-20 14:02 45.585110 -122.577938 36 19ft 0kts
10-Oct-20 14:03 45.585110 -122.577938 36 19ft 0kts
10-Oct-20 14:04 45.585110 -122.577938 36 19ft 0kts
10-Oct-20 14:05 45.585110 -122.577938 36 19ft 0kts
10-Oct-20 14:06 45.585110 -122.577938 36 19ft 0kts
10-Oct-20 14:07 45.585110 -122.577938 36 19ft 0kts
10-Oct-20 14:08 45.585110 -122.577938 36 19ft 0kts
10-Oct-20 14:09 45.585110 -122.577938 36 19ft 0kts
10-Oct-20 14:10 45.585110 -122.577938 36 19ft 0kts
10-Oct-20 14:11 45.585110 -122.577938 36 19ft 0kts
10-Oct-20 14:12 45.585110 -122.577938 36 19ft 0kts
10-Oct-20 14:13 45.585110 -122.577938 36 19ft 0kts
10-Oct-20 14:14 45.585110 -122.577938 36 19ft 0kts
10-Oct-20 14:15 45.585110 -122.577938 36 19ft 0kts
10-Oct-20 14:16 45.585110 -122.577938 36 19ft 0kts
10-Oct-20 14:17 45.585110 -122.577938 36 19ft 0kts
10-Oct-20 14:18 45.585110 -122.577938 36 19ft 0kts
10-Oct-20 14:19 45.585110 -122.577938 36 19ft 0kts
10-Oct-20 14:20 45.585110 -122.577938 36 19ft 0kts
10-Oct-20 14:21 45.585121 -122.577926 37 19ft 1kts
10-Oct-20 14:22 45.585195 -122.574161 120 19ft 0kts
10-Oct-20 14:23 45.584062 -122.571321 118 19ft 14kts
10-Oct-20 14:24 45.582730 -122.567524 76 19ft 0kts
10-Oct-20 14:25 45.582842 -122.567192 51 19ft 6kts
10-Oct-20 14:26 45.593693 -122.598222 269 433ft 183kts
10-Oct-20 14:27 45.580784 -122.676089 254 1456ft 197kts
10-Oct-20 14:28 45.567501 -122.749859 254 2457ft 187kts
10-Oct-20 14:29 45.547723 -122.814942 203 3452ft 192kts
10-Oct-20 14:30 45.508096 -122.766891 142 4471ft 203kts
10-Oct-20 14:31 45.465740 -122.714860 143 5477ft 199kts
10-Oct-20 14:32 45.424001 -122.664799 143 6480ft 194kts
10-Oct-20 14:34 45.385573 -122.618826 146 7467ft 171kts
10-Oct-20 14:35 45.376507 -122.608024 147 7716ft 169kts
10-Oct-20 14:36 45.347683 -122.573721 149 8529ft 165kts
10-Oct-20 14:37 45.333907 -122.557343 149 8924ft 164kts
10-Oct-20 14:38 45.314000 -122.533693 150 9501ft 162kts
10-Oct-20 14:39 45.279778 -122.493073 151 10509ft 160kts
10-Oct-20 14:40 45.240597 -122.446779 148 11574ft 206kts
10-Oct-20 14:41 45.150547 -122.340260 149 13574ft 227kts
10-Oct-20 14:42 45.051911 -122.224150 151 15551ft 232kts
10-Oct-20 14:43 44.953227 -122.108581 155 17507ft 230kts
10-Oct-20 14:44 44.854786 -121.993917 156 19476ft 229kts
10-Oct-20 14:45 44.757386 -121.880915 158 21458ft 226kts
10-Oct-20 14:46 44.661355 -121.769989 159 23451ft 221kts
10-Oct-20 14:47 44.589198 -121.686999 160 24877ft 221kts
10-Oct-20 14:48 44.536864 -121.627152 156 24900ft 263kts
10-Oct-20 14:49 44.477649 -121.559302 154 24898ft 282kts
10-Oct-20 14:50 44.415947 -121.488843 154 24902ft 290kts
10-Oct-20 14:50 44.363486 -121.429119 154 24901ft 293kts
10-Oct-20 14:52 44.289441 -121.345062 155 24900ft 295kts
10-Oct-20 14:52 44.234861 -121.297387 185 24906ft 255kts
10-Oct-20 14:53 44.166567 -121.273070 185 24919ft 253kts
10-Oct-20 14:54 44.098368 -121.249012 185 24924ft 254kts
10-Oct-20 14:55 44.029925 -121.224928 185 24924ft 254kts
10-Oct-20 14:56 43.961318 -121.200847 185 24925ft 254kts
10-Oct-20 14:57 43.826868 -121.153824 185 24918ft 254kts
10-Oct-20 14:58 43.690006 -121.106177 184 24921ft 253kts
10-Oct-20 14:59 43.554002 -121.059044 183 24924ft 253kts
10-Oct-20 15:00 43.417996 -121.012135 183 24926ft 252kts
10-Oct-20 15:01 43.281792 -120.965366 182 24928ft 252kts
10-Oct-20 15:02 43.145952 -120.916433 178 24947ft 256kts
10-Oct-20 15:03 43.009820 -120.859655 179 25003ft 255kts
10-Oct-20 15:04 42.873282 -120.803074 180 25004ft 257kts
10-Oct-20 15:05 42.736457 -120.746666 180 25005ft 258kts
10-Oct-20 15:06 42.598617 -120.690069 180 25008ft 259kts
10-Oct-20 15:07 42.460226 -120.633518 180 25010ft 260kts
10-Oct-20 15:08 42.321679 -120.577166 180 25014ft 261kts
10-Oct-20 15:09 42.182837 -120.520949 179 25017ft 261kts
10-Oct-20 15:10 42.044343 -120.465132 179 25018ft 261kts
10-Oct-20 15:11 41.904993 -120.409224 179 25021ft 262kts
10-Oct-20 15:12 41.766009 -120.353724 179 25024ft 261kts
10-Oct-20 15:13 41.627060 -120.298473 180 25007ft 259kts
10-Oct-20 15:14 41.489737 -120.244124 180 25010ft 258kts
10-Oct-20 15:15 41.352541 -120.190066 180 25013ft 258kts
10-Oct-20 15:16 41.214890 -120.136070 180 25015ft 258kts
10-Oct-20 15:17 41.077857 -120.090704 184 25018ft 252kts
10-Oct-20 15:18 40.940508 -120.051291 182 25019ft 252kts
10-Oct-20 15:19 40.803318 -120.012072 182 24663ft 254kts
10-Oct-20 15:20 40.718409 -119.987856 182 23411ft 245kts
10-Oct-20 15:21 40.652674 -119.969176 182 22409ft 239kts
10-Oct-20 15:22 40.588802 -119.951067 182 21417ft 234kts
10-Oct-20 15:23 40.525770 -119.933223 181 20420ft 230kts
10-Oct-20 15:24 40.463860 -119.915729 181 19426ft 226kts
10-Oct-20 15:25 40.402727 -119.898492 180 18431ft 223kts
10-Oct-20 15:26 40.342483 -119.881537 179 17435ft 220kts
10-Oct-20 15:27 40.282930 -119.864803 179 16437ft 218kts
10-Oct-20 15:28 40.224057 -119.848288 178 15438ft 216kts
10-Oct-20 15:29 40.165687 -119.831946 177 14436ft 214kts
10-Oct-20 15:30 40.107927 -119.815803 176 13435ft 212kts
10-Oct-20 15:31 40.051117 -119.799952 176 12524ft 209kts
10-Oct-20 15:32 39.994059 -119.784058 175 11512ft 209kts
10-Oct-20 15:33 39.937406 -119.768275 174 10504ft 209kts
10-Oct-20 15:34 39.880484 -119.752468 174 9498ft 210kts
10-Oct-20 15:35 39.825130 -119.737096 175 9062ft 190kts
10-Oct-20 15:36 39.775398 -119.723361 175 8908ft 183kts
10-Oct-20 15:37 39.722233 -119.708678 173 7937ft 205kts
10-Oct-20 15:38 39.667148 -119.693474 173 7510ft 191kts
10-Oct-20 15:39 39.616951 -119.679654 175 7494ft 180kts
10-Oct-20 15:40 39.569863 -119.666675 174 7485ft 153kts
10-Oct-20 15:41 39.531726 -119.661765 215 7451ft 139kts
10-Oct-20 15:42 39.510471 -119.696489 239 6356ft 124kts
10-Oct-20 15:43 39.496285 -119.730340 264 5122ft 86kts
10-Oct-20 15:44 39.496234 -119.759230 271 4418ft 49kts
10-Oct-20 15:45 39.497081 -119.765184 358 4418ft 0kts
10-Oct-20 15:46 39.498826 -119.765197 0 4418ft 17kts
10-Oct-20 15:47 39.499841 -119.764893 271 4418ft 0kts
10-Oct-20 15:48 39.499842 -119.764924 271 4418ft 0kts

Navigation Log

Ident Type
Flight plan parsing failed, navigation log unavailable